sensor_id;sensor_type;location;lat;lon;timestamp;P1;durP1;ratioP1;P2;durP2;ratioP2
15482;SDS011;7843;50.330;7.312;2022-07-17T00:00:24;2.83;;;1.20;;
15482;SDS011;7843;50.330;7.312;2022-07-17T00:02:51;4.65;;;1.30;;
15482;SDS011;7843;50.330;7.312;2022-07-17T00:05:18;4.27;;;1.37;;
15482;SDS011;7843;50.330;7.312;2022-07-17T00:07:45;4.57;;;1.35;;
15482;SDS011;7843;50.330;7.312;2022-07-17T00:10:17;3.22;;;1.13;;
15482;SDS011;7843;50.330;7.312;2022-07-17T00:12:44;2.55;;;1.00;;
15482;SDS011;7843;50.330;7.312;2022-07-17T00:15:12;3.38;;;1.17;;
15482;SDS011;7843;50.330;7.312;2022-07-17T00:17:39;4.00;;;1.48;;
15482;SDS011;7843;50.330;7.312;2022-07-17T00:20:06;4.43;;;1.30;;
15482;SDS011;7843;50.330;7.312;2022-07-17T00:22:36;3.90;;;1.30;;
15482;SDS011;7843;50.330;7.312;2022-07-17T00:25:03;4.10;;;1.33;;
15482;SDS011;7843;50.330;7.312;2022-07-17T00:27:31;2.53;;;1.20;;
15482;SDS011;7843;50.330;7.312;2022-07-17T00:29:58;6.78;;;1.50;;
15482;SDS011;7843;50.330;7.312;2022-07-17T00:32:25;5.00;;;1.70;;
15482;SDS011;7843;50.330;7.312;2022-07-17T00:34:52;3.50;;;1.60;;
15482;SDS011;7843;50.330;7.312;2022-07-17T00:37:18;2.97;;;1.52;;
15482;SDS011;7843;50.330;7.312;2022-07-17T00:39:45;3.95;;;1.50;;
15482;SDS011;7843;50.330;7.312;2022-07-17T00:42:13;5.43;;;1.60;;
15482;SDS011;7843;50.330;7.312;2022-07-17T00:44:42;2.47;;;1.45;;
15482;SDS011;7843;50.330;7.312;2022-07-17T00:47:19;4.18;;;1.40;;
15482;SDS011;7843;50.330;7.312;2022-07-17T00:49:46;3.97;;;1.60;;
15482;SDS011;7843;50.330;7.312;2022-07-17T00:52:16;4.63;;;1.35;;
15482;SDS011;7843;50.330;7.312;2022-07-17T00:54:44;5.65;;;1.63;;
15482;SDS011;7843;50.330;7.312;2022-07-17T00:57:13;3.95;;;1.45;;
15482;SDS011;7843;50.330;7.312;2022-07-17T00:59:41;3.08;;;1.33;;
15482;SDS011;7843;50.330;7.312;2022-07-17T01:02:10;3.97;;;1.60;;
15482;SDS011;7843;50.330;7.312;2022-07-17T01:04:38;6.10;;;1.70;;
15482;SDS011;7843;50.330;7.312;2022-07-17T01:07:06;3.40;;;1.45;;
15482;SDS011;7843;50.330;7.312;2022-07-17T01:09:35;2.30;;;1.50;;
15482;SDS011;7843;50.330;7.312;2022-07-17T01:12:02;4.05;;;1.60;;
15482;SDS011;7843;50.330;7.312;2022-07-17T01:14:29;3.72;;;1.40;;
15482;SDS011;7843;50.330;7.312;2022-07-17T01:16:55;5.47;;;1.92;;
15482;SDS011;7843;50.330;7.312;2022-07-17T01:19:22;6.93;;;1.80;;
15482;SDS011;7843;50.330;7.312;2022-07-17T01:21:49;4.85;;;1.70;;
15482;SDS011;7843;50.330;7.312;2022-07-17T01:24:17;5.25;;;2.00;;
15482;SDS011;7843;50.330;7.312;2022-07-17T01:26:46;5.55;;;1.80;;
15482;SDS011;7843;50.330;7.312;2022-07-17T01:29:14;5.15;;;1.50;;
15482;SDS011;7843;50.330;7.312;2022-07-17T01:31:42;5.85;;;1.70;;
15482;SDS011;7843;50.330;7.312;2022-07-17T01:34:10;4.47;;;2.03;;
15482;SDS011;7843;50.330;7.312;2022-07-17T01:36:40;3.30;;;1.70;;
15482;SDS011;7843;50.330;7.312;2022-07-17T01:39:07;4.72;;;1.73;;
15482;SDS011;7843;50.330;7.312;2022-07-17T01:41:34;4.03;;;1.80;;
15482;SDS011;7843;50.330;7.312;2022-07-17T01:44:01;3.70;;;1.58;;
15482;SDS011;7843;50.330;7.312;2022-07-17T01:46:30;6.25;;;2.08;;
15482;SDS011;7843;50.330;7.312;2022-07-17T01:48:56;3.50;;;1.63;;
15482;SDS011;7843;50.330;7.312;2022-07-17T01:51:23;7.17;;;2.07;;
15482;SDS011;7843;50.330;7.312;2022-07-17T01:53:53;3.67;;;1.50;;
15482;SDS011;7843;50.330;7.312;2022-07-17T01:56:20;4.68;;;1.90;;
15482;SDS011;7843;50.330;7.312;2022-07-17T01:58:47;3.47;;;1.83;;
15482;SDS011;7843;50.330;7.312;2022-07-17T02:01:14;5.07;;;1.88;;
15482;SDS011;7843;50.330;7.312;2022-07-17T02:03:41;4.38;;;1.80;;
15482;SDS011;7843;50.330;7.312;2022-07-17T02:06:08;6.00;;;1.80;;
15482;SDS011;7843;50.330;7.312;2022-07-17T02:08:35;4.23;;;1.93;;
15482;SDS011;7843;50.330;7.312;2022-07-17T02:11:05;3.60;;;1.50;;
15482;SDS011;7843;50.330;7.312;2022-07-17T02:13:32;3.60;;;1.70;;
15482;SDS011;7843;50.330;7.312;2022-07-17T02:15:58;3.75;;;1.50;;
15482;SDS011;7843;50.330;7.312;2022-07-17T02:18:25;4.55;;;1.25;;
15482;SDS011;7843;50.330;7.312;2022-07-17T02:20:52;2.83;;;1.60;;
15482;SDS011;7843;50.330;7.312;2022-07-17T02:23:19;4.53;;;1.58;;
15482;SDS011;7843;50.330;7.312;2022-07-17T02:25:45;3.13;;;1.60;;
15482;SDS011;7843;50.330;7.312;2022-07-17T02:28:12;4.80;;;1.48;;
15482;SDS011;7843;50.330;7.312;2022-07-17T02:30:39;2.70;;;1.48;;
15482;SDS011;7843;50.330;7.312;2022-07-17T02:33:06;3.08;;;1.65;;
15482;SDS011;7843;50.330;7.312;2022-07-17T02:35:33;4.30;;;1.83;;
15482;SDS011;7843;50.330;7.312;2022-07-17T02:38:00;5.10;;;1.67;;
15482;SDS011;7843;50.330;7.312;2022-07-17T02:40:27;3.90;;;1.73;;
15482;SDS011;7843;50.330;7.312;2022-07-17T02:42:54;2.95;;;1.52;;
15482;SDS011;7843;50.330;7.312;2022-07-17T02:45:21;3.25;;;1.80;;
15482;SDS011;7843;50.330;7.312;2022-07-17T02:47:51;2.93;;;1.43;;
15482;SDS011;7843;50.330;7.312;2022-07-17T02:50:19;3.83;;;1.58;;
15482;SDS011;7843;50.330;7.312;2022-07-17T02:52:47;3.30;;;1.75;;
15482;SDS011;7843;50.330;7.312;2022-07-17T02:55:15;3.97;;;1.57;;
15482;SDS011;7843;50.330;7.312;2022-07-17T02:57:43;3.72;;;1.38;;
15482;SDS011;7843;50.330;7.312;2022-07-17T03:00:13;3.25;;;1.63;;
15482;SDS011;7843;50.330;7.312;2022-07-17T03:02:42;3.42;;;1.58;;
15482;SDS011;7843;50.330;7.312;2022-07-17T03:05:10;3.10;;;1.38;;
15482;SDS011;7843;50.330;7.312;2022-07-17T03:07:37;4.00;;;1.90;;
15482;SDS011;7843;50.330;7.312;2022-07-17T03:10:04;5.27;;;1.53;;
15482;SDS011;7843;50.330;7.312;2022-07-17T03:12:32;4.38;;;1.60;;
15482;SDS011;7843;50.330;7.312;2022-07-17T03:14:58;4.30;;;1.58;;
15482;SDS011;7843;50.330;7.312;2022-07-17T03:17:25;3.33;;;1.63;;
15482;SDS011;7843;50.330;7.312;2022-07-17T03:19:52;3.28;;;1.70;;
15482;SDS011;7843;50.330;7.312;2022-07-17T03:22:19;5.07;;;1.50;;
15482;SDS011;7843;50.330;7.312;2022-07-17T03:24:45;3.10;;;1.70;;
15482;SDS011;7843;50.330;7.312;2022-07-17T03:27:12;4.85;;;1.83;;
15482;SDS011;7843;50.330;7.312;2022-07-17T03:29:39;2.92;;;1.50;;
15482;SDS011;7843;50.330;7.312;2022-07-17T03:32:05;3.78;;;1.58;;
15482;SDS011;7843;50.330;7.312;2022-07-17T03:34:32;3.30;;;1.27;;
15482;SDS011;7843;50.330;7.312;2022-07-17T03:36:59;2.72;;;1.30;;
15482;SDS011;7843;50.330;7.312;2022-07-17T03:39:26;3.83;;;1.42;;
15482;SDS011;7843;50.330;7.312;2022-07-17T03:41:56;4.75;;;1.40;;
15482;SDS011;7843;50.330;7.312;2022-07-17T03:44:22;3.35;;;1.20;;
15482;SDS011;7843;50.330;7.312;2022-07-17T03:46:49;2.47;;;1.20;;
15482;SDS011;7843;50.330;7.312;2022-07-17T03:49:16;3.50;;;1.40;;
15482;SDS011;7843;50.330;7.312;2022-07-17T03:51:43;4.10;;;1.23;;
15482;SDS011;7843;50.330;7.312;2022-07-17T03:54:09;3.38;;;1.10;;
15482;SDS011;7843;50.330;7.312;2022-07-17T03:56:36;3.33;;;1.27;;
15482;SDS011;7843;50.330;7.312;2022-07-17T03:59:03;3.78;;;1.40;;
15482;SDS011;7843;50.330;7.312;2022-07-17T04:01:30;4.95;;;1.70;;
15482;SDS011;7843;50.330;7.312;2022-07-17T04:03:57;3.15;;;1.40;;
15482;SDS011;7843;50.330;7.312;2022-07-17T04:06:23;2.50;;;1.40;;
15482;SDS011;7843;50.330;7.312;2022-07-17T04:08:50;3.20;;;1.50;;
15482;SDS011;7843;50.330;7.312;2022-07-17T04:11:17;2.70;;;1.30;;
15482;SDS011;7843;50.330;7.312;2022-07-17T04:13:46;3.70;;;1.77;;
15482;SDS011;7843;50.330;7.312;2022-07-17T04:16:14;3.15;;;1.60;;
15482;SDS011;7843;50.330;7.312;2022-07-17T04:18:40;4.10;;;1.70;;
15482;SDS011;7843;50.330;7.312;2022-07-17T04:21:08;3.15;;;1.40;;
15482;SDS011;7843;50.330;7.312;2022-07-17T04:23:35;4.78;;;1.50;;
15482;SDS011;7843;50.330;7.312;2022-07-17T04:26:03;4.65;;;1.60;;
15482;SDS011;7843;50.330;7.312;2022-07-17T04:28:35;4.20;;;1.55;;
15482;SDS011;7843;50.330;7.312;2022-07-17T04:31:03;2.33;;;1.50;;
15482;SDS011;7843;50.330;7.312;2022-07-17T04:33:30;5.20;;;1.55;;
15482;SDS011;7843;50.330;7.312;2022-07-17T04:35:56;4.25;;;1.38;;
15482;SDS011;7843;50.330;7.312;2022-07-17T04:38:23;2.70;;;1.23;;
15482;SDS011;7843;50.330;7.312;2022-07-17T04:40:50;3.17;;;1.42;;
15482;SDS011;7843;50.330;7.312;2022-07-17T04:43:16;4.43;;;1.30;;
15482;SDS011;7843;50.330;7.312;2022-07-17T04:45:43;3.70;;;1.52;;
15482;SDS011;7843;50.330;7.312;2022-07-17T04:48:10;2.70;;;1.40;;
15482;SDS011;7843;50.330;7.312;2022-07-17T04:50:36;4.50;;;1.50;;
15482;SDS011;7843;50.330;7.312;2022-07-17T04:53:03;4.15;;;1.40;;
15482;SDS011;7843;50.330;7.312;2022-07-17T04:55:30;3.77;;;1.30;;
15482;SDS011;7843;50.330;7.312;2022-07-17T04:57:57;2.80;;;1.42;;
15482;SDS011;7843;50.330;7.312;2022-07-17T05:00:24;2.63;;;1.40;;
15482;SDS011;7843;50.330;7.312;2022-07-17T05:02:51;2.88;;;1.40;;
15482;SDS011;7843;50.330;7.312;2022-07-17T05:05:17;2.60;;;1.50;;
15482;SDS011;7843;50.330;7.312;2022-07-17T05:07:44;5.10;;;1.60;;
15482;SDS011;7843;50.330;7.312;2022-07-17T05:10:11;3.58;;;1.50;;
15482;SDS011;7843;50.330;7.312;2022-07-17T05:12:37;5.03;;;1.65;;
15482;SDS011;7843;50.330;7.312;2022-07-17T05:15:04;4.05;;;1.80;;
15482;SDS011;7843;50.330;7.312;2022-07-17T05:17:31;4.22;;;1.65;;
15482;SDS011;7843;50.330;7.312;2022-07-17T05:19:58;3.97;;;1.75;;
15482;SDS011;7843;50.330;7.312;2022-07-17T05:22:25;6.50;;;2.00;;
15482;SDS011;7843;50.330;7.312;2022-07-17T05:24:52;3.70;;;2.00;;
15482;SDS011;7843;50.330;7.312;2022-07-17T05:27:18;3.13;;;1.80;;
15482;SDS011;7843;50.330;7.312;2022-07-17T05:29:45;5.20;;;2.10;;
15482;SDS011;7843;50.330;7.312;2022-07-17T05:32:12;4.10;;;2.42;;
15482;SDS011;7843;50.330;7.312;2022-07-17T05:34:38;4.40;;;1.80;;
15482;SDS011;7843;50.330;7.312;2022-07-17T05:37:05;4.25;;;1.90;;
15482;SDS011;7843;50.330;7.312;2022-07-17T05:39:32;3.47;;;1.83;;
15482;SDS011;7843;50.330;7.312;2022-07-17T05:41:58;6.43;;;2.40;;
15482;SDS011;7843;50.330;7.312;2022-07-17T05:44:25;3.67;;;1.90;;
15482;SDS011;7843;50.330;7.312;2022-07-17T05:46:52;2.00;;;1.40;;
15482;SDS011;7843;50.330;7.312;2022-07-17T05:49:18;4.90;;;2.30;;
15482;SDS011;7843;50.330;7.312;2022-07-17T05:51:45;4.03;;;1.90;;
15482;SDS011;7843;50.330;7.312;2022-07-17T05:54:14;5.13;;;1.70;;
15482;SDS011;7843;50.330;7.312;2022-07-17T05:56:40;5.25;;;2.05;;
15482;SDS011;7843;50.330;7.312;2022-07-17T05:59:07;5.13;;;1.58;;
15482;SDS011;7843;50.330;7.312;2022-07-17T06:01:34;7.05;;;2.08;;
15482;SDS011;7843;50.330;7.312;2022-07-17T06:04:00;6.45;;;2.10;;
15482;SDS011;7843;50.330;7.312;2022-07-17T06:06:27;4.97;;;1.80;;
15482;SDS011;7843;50.330;7.312;2022-07-17T06:08:54;3.40;;;1.75;;
15482;SDS011;7843;50.330;7.312;2022-07-17T06:11:20;3.28;;;1.40;;
15482;SDS011;7843;50.330;7.312;2022-07-17T06:13:50;5.70;;;1.50;;
15482;SDS011;7843;50.330;7.312;2022-07-17T06:16:17;5.05;;;1.80;;
15482;SDS011;7843;50.330;7.312;2022-07-17T06:18:43;5.90;;;1.90;;
15482;SDS011;7843;50.330;7.312;2022-07-17T06:21:10;4.43;;;1.92;;
15482;SDS011;7843;50.330;7.312;2022-07-17T06:23:37;5.63;;;2.10;;
15482;SDS011;7843;50.330;7.312;2022-07-17T06:26:03;5.95;;;2.05;;
15482;SDS011;7843;50.330;7.312;2022-07-17T06:28:30;6.03;;;1.88;;
15482;SDS011;7843;50.330;7.312;2022-07-17T06:30:57;4.97;;;1.88;;
15482;SDS011;7843;50.330;7.312;2022-07-17T06:33:24;3.72;;;1.58;;
15482;SDS011;7843;50.330;7.312;2022-07-17T06:35:51;4.07;;;1.70;;
15482;SDS011;7843;50.330;7.312;2022-07-17T06:38:18;3.33;;;1.90;;
15482;SDS011;7843;50.330;7.312;2022-07-17T06:40:45;5.78;;;1.60;;
15482;SDS011;7843;50.330;7.312;2022-07-17T06:43:11;2.50;;;1.50;;
15482;SDS011;7843;50.330;7.312;2022-07-17T06:45:38;5.70;;;1.67;;
15482;SDS011;7843;50.330;7.312;2022-07-17T06:48:05;3.47;;;1.52;;
15482;SDS011;7843;50.330;7.312;2022-07-17T06:50:32;3.25;;;1.42;;
15482;SDS011;7843;50.330;7.312;2022-07-17T06:52:58;5.18;;;1.58;;
15482;SDS011;7843;50.330;7.312;2022-07-17T06:55:25;6.13;;;1.50;;
15482;SDS011;7843;50.330;7.312;2022-07-17T07:01:39;3.50;;;1.30;;
15482;SDS011;7843;50.330;7.312;2022-07-17T07:04:06;3.25;;;1.38;;
15482;SDS011;7843;50.330;7.312;2022-07-17T07:06:33;7.20;;;1.40;;
15482;SDS011;7843;50.330;7.312;2022-07-17T07:09:00;3.88;;;1.40;;
15482;SDS011;7843;50.330;7.312;2022-07-17T07:11:26;3.10;;;1.23;;
15482;SDS011;7843;50.330;7.312;2022-07-17T07:13:53;3.60;;;1.63;;
15482;SDS011;7843;50.330;7.312;2022-07-17T07:16:20;7.43;;;1.50;;
15482;SDS011;7843;50.330;7.312;2022-07-17T07:18:47;6.18;;;1.77;;
15482;SDS011;7843;50.330;7.312;2022-07-17T07:21:14;5.53;;;1.42;;
15482;SDS011;7843;50.330;7.312;2022-07-17T07:23:40;3.22;;;1.30;;
15482;SDS011;7843;50.330;7.312;2022-07-17T07:26:07;4.65;;;1.20;;
15482;SDS011;7843;50.330;7.312;2022-07-17T07:28:34;3.03;;;1.23;;
15482;SDS011;7843;50.330;7.312;2022-07-17T07:31:01;3.80;;;1.30;;
15482;SDS011;7843;50.330;7.312;2022-07-17T07:33:27;3.58;;;1.40;;
15482;SDS011;7843;50.330;7.312;2022-07-17T07:35:54;3.77;;;1.50;;
15482;SDS011;7843;50.330;7.312;2022-07-17T07:38:21;5.75;;;1.23;;
15482;SDS011;7843;50.330;7.312;2022-07-17T07:40:48;3.15;;;1.33;;
15482;SDS011;7843;50.330;7.312;2022-07-17T07:43:14;3.83;;;1.30;;
15482;SDS011;7843;50.330;7.312;2022-07-17T07:45:41;4.67;;;1.37;;
15482;SDS011;7843;50.330;7.312;2022-07-17T07:48:08;2.67;;;1.35;;
15482;SDS011;7843;50.330;7.312;2022-07-17T07:50:35;4.65;;;1.50;;
15482;SDS011;7843;50.330;7.312;2022-07-17T07:53:01;4.47;;;1.40;;
15482;SDS011;7843;50.330;7.312;2022-07-17T07:55:28;3.30;;;1.67;;
15482;SDS011;7843;50.330;7.312;2022-07-17T07:58:02;4.30;;;1.63;;
15482;SDS011;7843;50.330;7.312;2022-07-17T08:00:33;5.65;;;1.35;;
15482;SDS011;7843;50.330;7.312;2022-07-17T08:03:01;2.78;;;1.30;;
15482;SDS011;7843;50.330;7.312;2022-07-17T08:05:29;5.20;;;1.20;;
15482;SDS011;7843;50.330;7.312;2022-07-17T08:07:56;3.75;;;1.52;;
15482;SDS011;7843;50.330;7.312;2022-07-17T08:10:23;2.80;;;1.25;;
15482;SDS011;7843;50.330;7.312;2022-07-17T08:12:51;3.65;;;1.25;;
15482;SDS011;7843;50.330;7.312;2022-07-17T08:15:19;3.53;;;1.10;;
15482;SDS011;7843;50.330;7.312;2022-07-17T08:17:47;4.00;;;1.30;;
15482;SDS011;7843;50.330;7.312;2022-07-17T08:20:16;3.13;;;1.10;;
15482;SDS011;7843;50.330;7.312;2022-07-17T08:22:44;2.30;;;1.20;;
15482;SDS011;7843;50.330;7.312;2022-07-17T08:25:27;3.80;;;1.30;;
15482;SDS011;7843;50.330;7.312;2022-07-17T08:27:54;5.13;;;1.13;;
15482;SDS011;7843;50.330;7.312;2022-07-17T08:30:21;4.00;;;1.02;;
15482;SDS011;7843;50.330;7.312;2022-07-17T08:32:48;3.53;;;1.00;;
15482;SDS011;7843;50.330;7.312;2022-07-17T08:35:15;3.58;;;0.95;;
15482;SDS011;7843;50.330;7.312;2022-07-17T08:37:43;4.47;;;1.10;;
15482;SDS011;7843;50.330;7.312;2022-07-17T08:40:28;4.15;;;1.45;;
15482;SDS011;7843;50.330;7.312;2022-07-17T08:42:57;3.20;;;1.35;;
15482;SDS011;7843;50.330;7.312;2022-07-17T08:45:25;3.10;;;1.00;;
15482;SDS011;7843;50.330;7.312;2022-07-17T08:47:52;3.97;;;1.38;;
15482;SDS011;7843;50.330;7.312;2022-07-17T08:50:22;4.00;;;1.10;;
15482;SDS011;7843;50.330;7.312;2022-07-17T08:52:51;4.85;;;1.60;;
15482;SDS011;7843;50.330;7.312;2022-07-17T08:55:19;2.10;;;1.10;;
15482;SDS011;7843;50.330;7.312;2022-07-17T08:57:46;4.68;;;1.35;;
15482;SDS011;7843;50.330;7.312;2022-07-17T09:00:13;4.72;;;1.35;;
15482;SDS011;7843;50.330;7.312;2022-07-17T09:02:52;3.55;;;1.08;;
15482;SDS011;7843;50.330;7.312;2022-07-17T09:05:21;3.63;;;1.30;;
15482;SDS011;7843;50.330;7.312;2022-07-17T09:07:48;2.85;;;1.10;;
15482;SDS011;7843;50.330;7.312;2022-07-17T09:10:15;5.93;;;1.27;;
15482;SDS011;7843;50.330;7.312;2022-07-17T09:12:42;4.07;;;1.23;;
15482;SDS011;7843;50.330;7.312;2022-07-17T09:15:16;4.68;;;1.20;;
15482;SDS011;7843;50.330;7.312;2022-07-17T09:17:48;4.03;;;1.20;;
15482;SDS011;7843;50.330;7.312;2022-07-17T09:20:19;4.18;;;1.30;;
15482;SDS011;7843;50.330;7.312;2022-07-17T09:23:00;3.10;;;1.08;;
15482;SDS011;7843;50.330;7.312;2022-07-17T09:25:37;3.72;;;1.02;;
15482;SDS011;7843;50.330;7.312;2022-07-17T09:28:15;4.25;;;1.27;;
15482;SDS011;7843;50.330;7.312;2022-07-17T09:30:44;4.65;;;1.30;;
15482;SDS011;7843;50.330;7.312;2022-07-17T09:33:16;2.42;;;1.20;;
15482;SDS011;7843;50.330;7.312;2022-07-17T09:35:49;3.67;;;1.00;;
15482;SDS011;7843;50.330;7.312;2022-07-17T09:38:27;3.15;;;1.17;;
15482;SDS011;7843;50.330;7.312;2022-07-17T09:41:06;3.45;;;1.08;;
15482;SDS011;7843;50.330;7.312;2022-07-17T09:43:40;3.67;;;1.10;;
15482;SDS011;7843;50.330;7.312;2022-07-17T09:46:14;2.88;;;1.20;;
15482;SDS011;7843;50.330;7.312;2022-07-17T09:48:53;3.65;;;1.10;;
15482;SDS011;7843;50.330;7.312;2022-07-17T09:53:57;3.17;;;1.00;;
15482;SDS011;7843;50.330;7.312;2022-07-17T09:56:26;3.85;;;1.08;;
15482;SDS011;7843;50.330;7.312;2022-07-17T09:58:55;2.90;;;1.15;;
15482;SDS011;7843;50.330;7.312;2022-07-17T10:01:30;2.28;;;1.00;;
15482;SDS011;7843;50.330;7.312;2022-07-17T10:03:58;3.80;;;0.90;;
15482;SDS011;7843;50.330;7.312;2022-07-17T10:06:25;4.43;;;1.17;;
15482;SDS011;7843;50.330;7.312;2022-07-17T10:08:53;3.03;;;0.90;;
15482;SDS011;7843;50.330;7.312;2022-07-17T10:11:22;2.85;;;0.90;;
15482;SDS011;7843;50.330;7.312;2022-07-17T10:13:52;2.63;;;0.88;;
15482;SDS011;7843;50.330;7.312;2022-07-17T10:16:24;2.78;;;0.88;;
15482;SDS011;7843;50.330;7.312;2022-07-17T10:18:52;3.15;;;1.00;;
15482;SDS011;7843;50.330;7.312;2022-07-17T10:21:22;2.45;;;1.05;;
15482;SDS011;7843;50.330;7.312;2022-07-17T10:28:58;3.35;;;1.00;;
15482;SDS011;7843;50.330;7.312;2022-07-17T10:31:25;3.05;;;1.00;;
15482;SDS011;7843;50.330;7.312;2022-07-17T10:33:55;3.33;;;0.73;;
15482;SDS011;7843;50.330;7.312;2022-07-17T10:36:42;1.17;;;0.60;;
15482;SDS011;7843;50.330;7.312;2022-07-17T10:41:57;4.63;;;0.90;;
15482;SDS011;7843;50.330;7.312;2022-07-17T10:44:26;3.83;;;1.00;;
15482;SDS011;7843;50.330;7.312;2022-07-17T10:46:54;1.93;;;0.70;;
15482;SDS011;7843;50.330;7.312;2022-07-17T10:49:22;1.83;;;0.70;;
15482;SDS011;7843;50.330;7.312;2022-07-17T10:51:50;4.47;;;0.90;;
15482;SDS011;7843;50.330;7.312;2022-07-17T10:54:17;3.15;;;0.80;;
15482;SDS011;7843;50.330;7.312;2022-07-17T10:56:45;2.05;;;0.60;;
15482;SDS011;7843;50.330;7.312;2022-07-17T10:59:12;3.40;;;0.90;;
15482;SDS011;7843;50.330;7.312;2022-07-17T11:01:39;2.70;;;0.80;;
15482;SDS011;7843;50.330;7.312;2022-07-17T11:04:06;3.10;;;0.90;;
15482;SDS011;7843;50.330;7.312;2022-07-17T11:06:39;2.58;;;0.75;;
15482;SDS011;7843;50.330;7.312;2022-07-17T11:09:09;1.50;;;0.60;;
15482;SDS011;7843;50.330;7.312;2022-07-17T11:11:39;3.10;;;0.70;;
15482;SDS011;7843;50.330;7.312;2022-07-17T11:19:35;4.22;;;0.88;;
15482;SDS011;7843;50.330;7.312;2022-07-17T11:22:09;2.33;;;0.70;;
15482;SDS011;7843;50.330;7.312;2022-07-17T11:24:41;2.95;;;0.70;;
15482;SDS011;7843;50.330;7.312;2022-07-17T11:27:18;1.55;;;0.70;;
15482;SDS011;7843;50.330;7.312;2022-07-17T11:29:48;1.07;;;0.60;;
15482;SDS011;7843;50.330;7.312;2022-07-17T11:32:16;2.40;;;0.67;;
15482;SDS011;7843;50.330;7.312;2022-07-17T11:34:43;2.42;;;0.70;;
15482;SDS011;7843;50.330;7.312;2022-07-17T11:37:10;1.80;;;0.60;;
15482;SDS011;7843;50.330;7.312;2022-07-17T11:39:44;2.97;;;0.90;;
15482;SDS011;7843;50.330;7.312;2022-07-17T11:42:14;2.13;;;0.60;;
15482;SDS011;7843;50.330;7.312;2022-07-17T11:44:52;1.42;;;0.60;;
15482;SDS011;7843;50.330;7.312;2022-07-17T11:47:25;2.63;;;0.60;;
15482;SDS011;7843;50.330;7.312;2022-07-17T11:52:44;2.30;;;0.70;;
15482;SDS011;7843;50.330;7.312;2022-07-17T11:55:14;1.33;;;0.63;;
15482;SDS011;7843;50.330;7.312;2022-07-17T11:57:42;1.40;;;0.65;;
15482;SDS011;7843;50.330;7.312;2022-07-17T12:00:11;2.83;;;0.60;;
15482;SDS011;7843;50.330;7.312;2022-07-17T12:02:42;1.75;;;0.60;;
15482;SDS011;7843;50.330;7.312;2022-07-17T12:05:09;1.80;;;0.60;;
15482;SDS011;7843;50.330;7.312;2022-07-17T12:10:15;1.50;;;0.47;;
15482;SDS011;7843;50.330;7.312;2022-07-17T12:12:52;1.48;;;0.50;;
15482;SDS011;7843;50.330;7.312;2022-07-17T12:15:21;1.10;;;0.52;;
15482;SDS011;7843;50.330;7.312;2022-07-17T12:18:00;1.58;;;0.40;;
15482;SDS011;7843;50.330;7.312;2022-07-17T12:20:39;1.95;;;0.75;;
15482;SDS011;7843;50.330;7.312;2022-07-17T12:26:07;1.40;;;0.55;;
15482;SDS011;7843;50.330;7.312;2022-07-17T12:28:35;2.13;;;0.60;;
15482;SDS011;7843;50.330;7.312;2022-07-17T12:31:03;2.30;;;0.57;;
15482;SDS011;7843;50.330;7.312;2022-07-17T12:33:31;5.73;;;0.70;;
15482;SDS011;7843;50.330;7.312;2022-07-17T12:35:57;2.05;;;0.70;;
15482;SDS011;7843;50.330;7.312;2022-07-17T12:38:24;2.25;;;0.68;;
15482;SDS011;7843;50.330;7.312;2022-07-17T12:40:51;4.88;;;0.70;;
15482;SDS011;7843;50.330;7.312;2022-07-17T12:43:18;3.90;;;0.83;;
15482;SDS011;7843;50.330;7.312;2022-07-17T12:45:45;2.78;;;0.77;;
15482;SDS011;7843;50.330;7.312;2022-07-17T12:48:12;3.00;;;0.63;;
15482;SDS011;7843;50.330;7.312;2022-07-17T12:50:38;4.05;;;1.00;;
15482;SDS011;7843;50.330;7.312;2022-07-17T12:53:06;3.80;;;0.70;;
15482;SDS011;7843;50.330;7.312;2022-07-17T12:55:33;3.45;;;0.60;;
15482;SDS011;7843;50.330;7.312;2022-07-17T12:58:00;1.80;;;0.60;;
15482;SDS011;7843;50.330;7.312;2022-07-17T13:00:27;2.10;;;0.60;;
15482;SDS011;7843;50.330;7.312;2022-07-17T13:02:54;1.70;;;0.70;;
15482;SDS011;7843;50.330;7.312;2022-07-17T13:05:23;1.88;;;0.60;;
15482;SDS011;7843;50.330;7.312;2022-07-17T13:07:50;2.03;;;0.88;;
15482;SDS011;7843;50.330;7.312;2022-07-17T13:10:17;1.98;;;0.60;;
15482;SDS011;7843;50.330;7.312;2022-07-17T13:12:44;1.60;;;0.70;;
15482;SDS011;7843;50.330;7.312;2022-07-17T13:15:10;2.03;;;0.63;;
15482;SDS011;7843;50.330;7.312;2022-07-17T13:17:37;2.72;;;0.55;;
15482;SDS011;7843;50.330;7.312;2022-07-17T13:20:04;1.70;;;0.60;;
15482;SDS011;7843;50.330;7.312;2022-07-17T13:22:33;2.50;;;0.80;;
15482;SDS011;7843;50.330;7.312;2022-07-17T13:24:59;2.47;;;0.80;;
15482;SDS011;7843;50.330;7.312;2022-07-17T13:27:26;2.60;;;0.80;;
15482;SDS011;7843;50.330;7.312;2022-07-17T13:29:53;2.60;;;0.70;;
15482;SDS011;7843;50.330;7.312;2022-07-17T13:32:19;1.60;;;0.50;;
15482;SDS011;7843;50.330;7.312;2022-07-17T13:34:46;1.83;;;0.75;;
15482;SDS011;7843;50.330;7.312;2022-07-17T13:37:15;2.13;;;0.50;;
15482;SDS011;7843;50.330;7.312;2022-07-17T13:39:41;5.90;;;0.80;;
15482;SDS011;7843;50.330;7.312;2022-07-17T13:42:08;1.13;;;0.43;;
15482;SDS011;7843;50.330;7.312;2022-07-17T13:44:35;2.85;;;0.65;;
15482;SDS011;7843;50.330;7.312;2022-07-17T13:47:02;3.78;;;0.75;;
15482;SDS011;7843;50.330;7.312;2022-07-17T13:49:28;1.15;;;0.55;;
15482;SDS011;7843;50.330;7.312;2022-07-17T13:51:55;1.25;;;0.60;;
15482;SDS011;7843;50.330;7.312;2022-07-17T13:54:22;1.88;;;0.63;;
15482;SDS011;7843;50.330;7.312;2022-07-17T13:56:49;1.53;;;0.63;;
15482;SDS011;7843;50.330;7.312;2022-07-17T13:59:15;1.30;;;0.60;;
15482;SDS011;7843;50.330;7.312;2022-07-17T14:01:43;2.65;;;0.75;;
15482;SDS011;7843;50.330;7.312;2022-07-17T14:04:10;1.95;;;0.80;;
15482;SDS011;7843;50.330;7.312;2022-07-17T14:06:36;1.60;;;0.68;;
15482;SDS011;7843;50.330;7.312;2022-07-17T14:09:03;1.67;;;0.57;;
15482;SDS011;7843;50.330;7.312;2022-07-17T14:11:30;1.80;;;0.60;;
15482;SDS011;7843;50.330;7.312;2022-07-17T14:13:57;2.27;;;0.67;;
15482;SDS011;7843;50.330;7.312;2022-07-17T14:16:23;3.28;;;0.60;;
15482;SDS011;7843;50.330;7.312;2022-07-17T14:18:50;2.33;;;0.50;;
15482;SDS011;7843;50.330;7.312;2022-07-17T14:21:28;1.07;;;0.50;;
15482;SDS011;7843;50.330;7.312;2022-07-17T14:23:56;1.30;;;0.60;;
15482;SDS011;7843;50.330;7.312;2022-07-17T14:26:23;1.40;;;0.55;;
15482;SDS011;7843;50.330;7.312;2022-07-17T14:28:50;1.52;;;0.60;;
15482;SDS011;7843;50.330;7.312;2022-07-17T14:31:17;1.60;;;0.80;;
15482;SDS011;7843;50.330;7.312;2022-07-17T14:33:44;1.33;;;0.73;;
15482;SDS011;7843;50.330;7.312;2022-07-17T14:36:10;1.40;;;0.57;;
15482;SDS011;7843;50.330;7.312;2022-07-17T14:38:37;1.90;;;0.80;;
15482;SDS011;7843;50.330;7.312;2022-07-17T14:41:05;1.60;;;0.70;;
15482;SDS011;7843;50.330;7.312;2022-07-17T14:43:33;1.20;;;0.60;;
15482;SDS011;7843;50.330;7.312;2022-07-17T14:46:03;2.28;;;0.63;;
15482;SDS011;7843;50.330;7.312;2022-07-17T14:48:30;1.80;;;0.82;;
15482;SDS011;7843;50.330;7.312;2022-07-17T14:50:57;1.30;;;0.63;;
15482;SDS011;7843;50.330;7.312;2022-07-17T14:53:24;1.30;;;0.57;;
15482;SDS011;7843;50.330;7.312;2022-07-17T14:55:50;1.55;;;0.70;;
15482;SDS011;7843;50.330;7.312;2022-07-17T14:58:17;0.93;;;0.40;;
15482;SDS011;7843;50.330;7.312;2022-07-17T15:00:44;3.50;;;0.90;;
15482;SDS011;7843;50.330;7.312;2022-07-17T15:03:11;1.70;;;0.60;;
15482;SDS011;7843;50.330;7.312;2022-07-17T15:05:37;4.07;;;0.80;;
15482;SDS011;7843;50.330;7.312;2022-07-17T15:08:04;1.85;;;0.80;;
15482;SDS011;7843;50.330;7.312;2022-07-17T15:10:31;1.77;;;0.82;;
15482;SDS011;7843;50.330;7.312;2022-07-17T15:12:59;3.80;;;0.90;;
15482;SDS011;7843;50.330;7.312;2022-07-17T15:15:26;2.38;;;0.85;;
15482;SDS011;7843;50.330;7.312;2022-07-17T15:17:53;1.50;;;0.70;;
15482;SDS011;7843;50.330;7.312;2022-07-17T15:20:20;2.67;;;0.85;;
15482;SDS011;7843;50.330;7.312;2022-07-17T15:22:47;2.07;;;0.80;;
15482;SDS011;7843;50.330;7.312;2022-07-17T15:25:13;1.80;;;0.90;;
15482;SDS011;7843;50.330;7.312;2022-07-17T15:27:40;2.30;;;0.90;;
15482;SDS011;7843;50.330;7.312;2022-07-17T15:30:07;1.40;;;0.70;;
15482;SDS011;7843;50.330;7.312;2022-07-17T15:32:34;2.40;;;0.73;;